Columbia, Alabama
Current Conditions -  °F | °C
As of 11:55 AM on Monday 24 Nov 2014 (Local Time) from KBIJ Reporting Station
Overcast Overcast  
Wind Chill: 75°   Ceiling: 11000
Heat Index: 75°   Visibility: 10mi
Dew Point: 68°   Wind: 7mph
Humidity: 78%   Direction: 210°SSW
Pressure: 29.85"   Gusts: NA
Location:  31.29°N, 85.11°W
Report Text: KBIJ 241755Z AUTO 21006KT 10SM SCT020 SCT026 OVC110 24/20 A2985 RMK AO2
Loading
Personal Weather Stations






























Interactive Weather Map New forecast layout! Learn more

10-Day Weather Forecast

Advertisements
Track Severe Weather on mobile